sensor_id;sensor_type;location;lat;lon;timestamp;P1;durP1;ratioP1;P2;durP2;ratioP2
52708;SDS011;38606;52.986;6.980;2023-05-10T00:01:21;21.77;;;16.52;;
52708;SDS011;38606;52.986;6.980;2023-05-10T00:03:47;18.75;;;15.20;;
52708;SDS011;38606;52.986;6.980;2023-05-10T00:06:12;19.23;;;14.52;;
52708;SDS011;38606;52.986;6.980;2023-05-10T00:08:38;19.73;;;15.48;;
52708;SDS011;38606;52.986;6.980;2023-05-10T00:11:04;19.95;;;15.30;;
52708;SDS011;38606;52.986;6.980;2023-05-10T00:13:30;19.55;;;13.85;;
52708;SDS011;38606;52.986;6.980;2023-05-10T00:15:56;19.00;;;14.40;;
52708;SDS011;38606;52.986;6.980;2023-05-10T00:18:22;15.75;;;12.95;;
52708;SDS011;38606;52.986;6.980;2023-05-10T00:20:47;13.80;;;11.43;;
52708;SDS011;38606;52.986;6.980;2023-05-10T00:23:13;14.13;;;11.32;;
52708;SDS011;38606;52.986;6.980;2023-05-10T00:25:39;7.55;;;6.72;;
52708;SDS011;38606;52.986;6.980;2023-05-10T00:28:05;6.78;;;5.93;;
52708;SDS011;38606;52.986;6.980;2023-05-10T00:30:31;6.13;;;5.53;;
52708;SDS011;38606;52.986;6.980;2023-05-10T00:32:57;6.50;;;5.90;;
52708;SDS011;38606;52.986;6.980;2023-05-10T00:35:22;9.13;;;7.03;;
52708;SDS011;38606;52.986;6.980;2023-05-10T00:37:48;8.18;;;7.10;;
52708;SDS011;38606;52.986;6.980;2023-05-10T00:40:14;9.48;;;7.80;;
52708;SDS011;38606;52.986;6.980;2023-05-10T00:42:40;8.55;;;7.65;;
52708;SDS011;38606;52.986;6.980;2023-05-10T00:45:06;7.97;;;7.18;;
52708;SDS011;38606;52.986;6.980;2023-05-10T00:47:32;8.15;;;7.32;;
52708;SDS011;38606;52.986;6.980;2023-05-10T00:49:58;8.68;;;7.78;;
52708;SDS011;38606;52.986;6.980;2023-05-10T00:52:25;11.95;;;7.88;;
52708;SDS011;38606;52.986;6.980;2023-05-10T00:54:55;11.00;;;8.45;;
52708;SDS011;38606;52.986;6.980;2023-05-10T00:57:21;11.15;;;8.20;;
52708;SDS011;38606;52.986;6.980;2023-05-10T00:59:47;8.70;;;7.80;;
52708;SDS011;38606;52.986;6.980;2023-05-10T01:02:13;11.20;;;8.23;;
52708;SDS011;38606;52.986;6.980;2023-05-10T01:04:39;8.32;;;7.53;;
52708;SDS011;38606;52.986;6.980;2023-05-10T01:07:05;9.00;;;8.10;;
52708;SDS011;38606;52.986;6.980;2023-05-10T01:09:32;7.95;;;7.15;;
52708;SDS011;38606;52.986;6.980;2023-05-10T01:11:58;8.88;;;7.93;;
52708;SDS011;38606;52.986;6.980;2023-05-10T01:14:25;8.63;;;7.75;;
52708;SDS011;38606;52.986;6.980;2023-05-10T01:16:51;10.10;;;8.55;;
52708;SDS011;38606;52.986;6.980;2023-05-10T01:38:41;16.10;;;10.48;;
52708;SDS011;38606;52.986;6.980;2023-05-10T01:44:29;13.15;;;10.93;;
52708;SDS011;38606;52.986;6.980;2023-05-10T01:46:39;13.25;;;10.70;;
52708;SDS011;38606;52.986;6.980;2023-05-10T01:49:09;13.32;;;10.48;;
52708;SDS011;38606;52.986;6.980;2023-05-10T01:51:53;15.13;;;12.27;;
52708;SDS011;38606;52.986;6.980;2023-05-10T01:54:21;14.32;;;11.75;;
52708;SDS011;38606;52.986;6.980;2023-05-10T01:56:50;14.18;;;11.23;;
52708;SDS011;38606;52.986;6.980;2023-05-10T01:59:22;14.88;;;11.88;;
52708;SDS011;38606;52.986;6.980;2023-05-10T02:01:50;16.00;;;12.27;;
52708;SDS011;38606;52.986;6.980;2023-05-10T02:04:18;13.43;;;11.48;;
52708;SDS011;38606;52.986;6.980;2023-05-10T02:06:47;15.05;;;12.00;;
52708;SDS011;38606;52.986;6.980;2023-05-10T02:09:13;14.50;;;11.70;;
52708;SDS011;38606;52.986;6.980;2023-05-10T02:11:41;13.30;;;11.38;;
52708;SDS011;38606;52.986;6.980;2023-05-10T02:14:09;13.68;;;10.70;;
52708;SDS011;38606;52.986;6.980;2023-05-10T02:16:37;11.95;;;10.45;;
52708;SDS011;38606;52.986;6.980;2023-05-10T02:19:03;13.07;;;10.40;;
52708;SDS011;38606;52.986;6.980;2023-05-10T02:21:30;13.45;;;10.98;;
52708;SDS011;38606;52.986;6.980;2023-05-10T02:23:57;15.45;;;11.40;;
52708;SDS011;38606;52.986;6.980;2023-05-10T02:26:25;14.07;;;10.38;;
52708;SDS011;38606;52.986;6.980;2023-05-10T02:28:53;12.98;;;10.63;;
52708;SDS011;38606;52.986;6.980;2023-05-10T02:31:20;15.55;;;11.00;;
52708;SDS011;38606;52.986;6.980;2023-05-10T02:33:46;14.13;;;10.93;;
52708;SDS011;38606;52.986;6.980;2023-05-10T02:36:13;13.13;;;10.60;;
52708;SDS011;38606;52.986;6.980;2023-05-10T02:38:40;12.57;;;10.15;;
52708;SDS011;38606;52.986;6.980;2023-05-10T02:41:07;12.80;;;9.80;;
52708;SDS011;38606;52.986;6.980;2023-05-10T02:43:35;12.07;;;10.05;;
52708;SDS011;38606;52.986;6.980;2023-05-10T02:46:04;14.00;;;11.15;;
52708;SDS011;38606;52.986;6.980;2023-05-10T02:48:30;12.50;;;9.30;;
52708;SDS011;38606;52.986;6.980;2023-05-10T02:50:56;12.80;;;9.25;;
52708;SDS011;38606;52.986;6.980;2023-05-10T02:53:31;15.32;;;9.75;;
52708;SDS011;38606;52.986;6.980;2023-05-10T02:56:00;14.25;;;9.82;;
52708;SDS011;38606;52.986;6.980;2023-05-10T02:58:32;11.20;;;8.70;;
52708;SDS011;38606;52.986;6.980;2023-05-10T03:00:59;13.00;;;8.77;;
52708;SDS011;38606;52.986;6.980;2023-05-10T03:03:25;12.45;;;9.63;;
52708;SDS011;38606;52.986;6.980;2023-05-10T03:05:51;14.70;;;9.52;;
52708;SDS011;38606;52.986;6.980;2023-05-10T03:08:20;11.90;;;8.32;;
52708;SDS011;38606;52.986;6.980;2023-05-10T03:10:52;11.27;;;9.18;;
52708;SDS011;38606;52.986;6.980;2023-05-10T03:13:41;12.30;;;8.73;;
52708;SDS011;38606;52.986;6.980;2023-05-10T03:16:33;12.02;;;8.63;;
52708;SDS011;38606;52.986;6.980;2023-05-10T03:22:31;13.15;;;8.70;;
52708;SDS011;38606;52.986;6.980;2023-05-10T03:25:08;14.82;;;9.75;;
52708;SDS011;38606;52.986;6.980;2023-05-10T03:27:36;16.65;;;9.85;;
52708;SDS011;38606;52.986;6.980;2023-05-10T03:30:05;12.32;;;8.95;;
52708;SDS011;38606;52.986;6.980;2023-05-10T03:32:35;14.48;;;9.60;;
52708;SDS011;38606;52.986;6.980;2023-05-10T03:35:06;14.35;;;9.40;;
52708;SDS011;38606;52.986;6.980;2023-05-10T03:37:33;15.00;;;10.13;;
52708;SDS011;38606;52.986;6.980;2023-05-10T03:39:59;14.40;;;9.85;;
52708;SDS011;38606;52.986;6.980;2023-05-10T03:42:25;13.60;;;9.55;;
52708;SDS011;38606;52.986;6.980;2023-05-10T03:44:50;14.02;;;9.55;;
52708;SDS011;38606;52.986;6.980;2023-05-10T03:47:16;14.10;;;9.63;;
52708;SDS011;38606;52.986;6.980;2023-05-10T03:49:42;13.77;;;9.55;;
52708;SDS011;38606;52.986;6.980;2023-05-10T03:52:08;14.93;;;9.30;;
52708;SDS011;38606;52.986;6.980;2023-05-10T03:54:33;13.13;;;9.57;;
52708;SDS011;38606;52.986;6.980;2023-05-10T03:56:59;14.85;;;9.90;;
52708;SDS011;38606;52.986;6.980;2023-05-10T03:59:26;13.32;;;9.57;;
52708;SDS011;38606;52.986;6.980;2023-05-10T04:01:51;15.68;;;9.75;;
52708;SDS011;38606;52.986;6.980;2023-05-10T04:04:17;12.50;;;9.48;;
52708;SDS011;38606;52.986;6.980;2023-05-10T04:06:45;13.57;;;10.57;;
52708;SDS011;38606;52.986;6.980;2023-05-10T04:09:11;14.52;;;9.70;;
52708;SDS011;38606;52.986;6.980;2023-05-10T04:11:37;13.32;;;9.85;;
52708;SDS011;38606;52.986;6.980;2023-05-10T04:14:03;12.80;;;9.43;;
52708;SDS011;38606;52.986;6.980;2023-05-10T04:16:29;15.10;;;10.15;;
52708;SDS011;38606;52.986;6.980;2023-05-10T04:18:54;11.35;;;9.18;;
52708;SDS011;38606;52.986;6.980;2023-05-10T04:21:20;13.98;;;10.57;;
52708;SDS011;38606;52.986;6.980;2023-05-10T04:23:46;14.32;;;10.00;;
52708;SDS011;38606;52.986;6.980;2023-05-10T04:26:12;13.93;;;9.88;;
52708;SDS011;38606;52.986;6.980;2023-05-10T04:28:38;14.55;;;10.00;;
52708;SDS011;38606;52.986;6.980;2023-05-10T04:31:04;13.38;;;10.70;;
52708;SDS011;38606;52.986;6.980;2023-05-10T04:33:31;13.65;;;10.52;;
52708;SDS011;38606;52.986;6.980;2023-05-10T04:35:58;12.95;;;10.13;;
52708;SDS011;38606;52.986;6.980;2023-05-10T04:38:24;13.07;;;10.68;;
52708;SDS011;38606;52.986;6.980;2023-05-10T04:40:50;14.25;;;11.65;;
52708;SDS011;38606;52.986;6.980;2023-05-10T04:43:16;14.05;;;9.98;;
52708;SDS011;38606;52.986;6.980;2023-05-10T04:45:41;11.52;;;9.25;;
52708;SDS011;38606;52.986;6.980;2023-05-10T04:48:07;13.98;;;9.57;;
52708;SDS011;38606;52.986;6.980;2023-05-10T04:50:33;12.88;;;9.40;;
52708;SDS011;38606;52.986;6.980;2023-05-10T04:52:58;11.13;;;9.18;;
52708;SDS011;38606;52.986;6.980;2023-05-10T04:55:24;11.95;;;8.90;;
52708;SDS011;38606;52.986;6.980;2023-05-10T04:57:51;12.55;;;8.10;;
52708;SDS011;38606;52.986;6.980;2023-05-10T05:00:17;10.43;;;8.13;;
52708;SDS011;38606;52.986;6.980;2023-05-10T05:02:44;10.50;;;7.63;;
52708;SDS011;38606;52.986;6.980;2023-05-10T05:05:11;9.27;;;7.57;;
52708;SDS011;38606;52.986;6.980;2023-05-10T05:07:37;9.80;;;7.70;;
52708;SDS011;38606;52.986;6.980;2023-05-10T05:10:04;8.60;;;7.38;;
52708;SDS011;38606;52.986;6.980;2023-05-10T05:12:33;9.18;;;7.05;;
52708;SDS011;38606;52.986;6.980;2023-05-10T05:15:00;9.73;;;7.25;;
52708;SDS011;38606;52.986;6.980;2023-05-10T05:17:26;7.82;;;7.03;;
52708;SDS011;38606;52.986;6.980;2023-05-10T05:19:52;7.95;;;7.15;;
52708;SDS011;38606;52.986;6.980;2023-05-10T05:22:17;8.80;;;7.20;;
52708;SDS011;38606;52.986;6.980;2023-05-10T05:24:44;7.93;;;6.32;;
52708;SDS011;38606;52.986;6.980;2023-05-10T05:27:10;7.47;;;6.65;;
52708;SDS011;38606;52.986;6.980;2023-05-10T05:29:36;9.05;;;7.00;;
52708;SDS011;38606;52.986;6.980;2023-05-10T05:32:02;10.70;;;7.35;;
52708;SDS011;38606;52.986;6.980;2023-05-10T05:34:28;8.05;;;6.97;;
52708;SDS011;38606;52.986;6.980;2023-05-10T05:36:53;8.43;;;6.80;;
52708;SDS011;38606;52.986;6.980;2023-05-10T05:39:19;8.38;;;6.40;;
52708;SDS011;38606;52.986;6.980;2023-05-10T05:41:45;7.18;;;6.20;;
52708;SDS011;38606;52.986;6.980;2023-05-10T05:44:11;6.88;;;6.15;;
52708;SDS011;38606;52.986;6.980;2023-05-10T05:46:37;9.20;;;6.32;;
52708;SDS011;38606;52.986;6.980;2023-05-10T05:49:03;7.30;;;6.30;;
52708;SDS011;38606;52.986;6.980;2023-05-10T05:51:28;7.45;;;6.65;;
52708;SDS011;38606;52.986;6.980;2023-05-10T05:53:55;6.90;;;5.90;;
52708;SDS011;38606;52.986;6.980;2023-05-10T05:56:20;7.40;;;5.88;;
52708;SDS011;38606;52.986;6.980;2023-05-10T05:58:52;7.30;;;6.00;;
52708;SDS011;38606;52.986;6.980;2023-05-10T06:01:18;6.85;;;5.60;;
52708;SDS011;38606;52.986;6.980;2023-05-10T06:03:44;6.57;;;5.85;;
52708;SDS011;38606;52.986;6.980;2023-05-10T06:06:09;6.72;;;6.03;;
52708;SDS011;38606;52.986;6.980;2023-05-10T06:08:35;7.45;;;6.18;;
52708;SDS011;38606;52.986;6.980;2023-05-10T06:11:01;8.02;;;6.63;;
52708;SDS011;38606;52.986;6.980;2023-05-10T06:13:26;6.85;;;5.97;;
52708;SDS011;38606;52.986;6.980;2023-05-10T06:16:00;9.82;;;6.80;;
52708;SDS011;38606;52.986;6.980;2023-05-10T06:18:27;7.57;;;6.35;;
52708;SDS011;38606;52.986;6.980;2023-05-10T06:20:53;9.40;;;6.88;;
52708;SDS011;38606;52.986;6.980;2023-05-10T06:23:18;11.10;;;6.88;;
52708;SDS011;38606;52.986;6.980;2023-05-10T06:25:44;8.55;;;5.85;;
52708;SDS011;38606;52.986;6.980;2023-05-10T06:28:10;6.47;;;5.75;;
52708;SDS011;38606;52.986;6.980;2023-05-10T06:30:36;8.15;;;5.90;;
52708;SDS011;38606;52.986;6.980;2023-05-10T06:33:02;7.75;;;6.05;;
52708;SDS011;38606;52.986;6.980;2023-05-10T06:35:28;6.28;;;5.57;;
52708;SDS011;38606;52.986;6.980;2023-05-10T06:37:54;8.05;;;5.82;;
52708;SDS011;38606;52.986;6.980;2023-05-10T06:40:20;6.63;;;5.65;;
52708;SDS011;38606;52.986;6.980;2023-05-10T06:42:46;10.52;;;5.03;;
52708;SDS011;38606;52.986;6.980;2023-05-10T06:45:13;6.40;;;5.45;;
52708;SDS011;38606;52.986;6.980;2023-05-10T06:47:39;7.55;;;4.28;;
52708;SDS011;38606;52.986;6.980;2023-05-10T06:50:09;4.75;;;4.03;;
52708;SDS011;38606;52.986;6.980;2023-05-10T06:52:36;5.72;;;4.07;;
52708;SDS011;38606;52.986;6.980;2023-05-10T06:55:03;4.70;;;4.00;;
52708;SDS011;38606;52.986;6.980;2023-05-10T06:57:30;6.03;;;3.95;;
52708;SDS011;38606;52.986;6.980;2023-05-10T06:59:56;4.68;;;3.78;;
52708;SDS011;38606;52.986;6.980;2023-05-10T07:02:22;4.03;;;3.63;;
52708;SDS011;38606;52.986;6.980;2023-05-10T07:04:48;3.70;;;3.10;;
52708;SDS011;38606;52.986;6.980;2023-05-10T07:07:14;4.80;;;3.72;;
52708;SDS011;38606;52.986;6.980;2023-05-10T07:09:40;4.25;;;3.38;;
52708;SDS011;38606;52.986;6.980;2023-05-10T07:12:06;3.88;;;3.38;;
52708;SDS011;38606;52.986;6.980;2023-05-10T07:14:31;3.97;;;3.00;;
52708;SDS011;38606;52.986;6.980;2023-05-10T07:16:57;4.90;;;3.45;;
52708;SDS011;38606;52.986;6.980;2023-05-10T07:19:23;3.33;;;3.03;;
52708;SDS011;38606;52.986;6.980;2023-05-10T07:21:48;3.40;;;3.03;;
52708;SDS011;38606;52.986;6.980;2023-05-10T07:24:16;2.60;;;2.40;;
52708;SDS011;38606;52.986;6.980;2023-05-10T07:26:41;2.78;;;2.50;;
52708;SDS011;38606;52.986;6.980;2023-05-10T07:29:07;2.67;;;2.45;;
52708;SDS011;38606;52.986;6.980;2023-05-10T07:31:33;2.20;;;2.00;;
52708;SDS011;38606;52.986;6.980;2023-05-10T07:33:58;1.58;;;1.48;;
52708;SDS011;38606;52.986;6.980;2023-05-10T07:36:24;1.20;;;0.93;;
52708;SDS011;38606;52.986;6.980;2023-05-10T07:38:50;0.93;;;0.90;;
52708;SDS011;38606;52.986;6.980;2023-05-10T07:41:16;0.65;;;0.65;;
52708;SDS011;38606;52.986;6.980;2023-05-10T07:43:41;0.57;;;0.57;;
52708;SDS011;38606;52.986;6.980;2023-05-10T07:46:07;1.38;;;0.60;;
52708;SDS011;38606;52.986;6.980;2023-05-10T07:48:35;0.52;;;0.52;;
52708;SDS011;38606;52.986;6.980;2023-05-10T07:51:01;1.25;;;0.57;;
52708;SDS011;38606;52.986;6.980;2023-05-10T07:53:27;0.40;;;0.40;;
52708;SDS011;38606;52.986;6.980;2023-05-10T07:55:54;0.30;;;0.30;;
52708;SDS011;38606;52.986;6.980;2023-05-10T07:58:23;2.33;;;0.50;;
52708;SDS011;38606;52.986;6.980;2023-05-10T08:00:48;0.80;;;0.22;;
52708;SDS011;38606;52.986;6.980;2023-05-10T08:03:14;0.60;;;0.30;;
52708;SDS011;38606;52.986;6.980;2023-05-10T08:05:40;0.52;;;0.30;;
52708;SDS011;38606;52.986;6.980;2023-05-10T08:08:06;1.73;;;0.25;;
52708;SDS011;38606;52.986;6.980;2023-05-10T08:10:32;0.30;;;0.30;;
52708;SDS011;38606;52.986;6.980;2023-05-10T08:12:58;0.52;;;0.30;;
52708;SDS011;38606;52.986;6.980;2023-05-10T08:15:24;0.68;;;0.20;;
52708;SDS011;38606;52.986;6.980;2023-05-10T08:17:53;0.40;;;0.40;;
52708;SDS011;38606;52.986;6.980;2023-05-10T08:20:19;0.20;;;0.20;;
52708;SDS011;38606;52.986;6.980;2023-05-10T08:22:45;1.17;;;0.30;;
52708;SDS011;38606;52.986;6.980;2023-05-10T08:25:11;0.25;;;0.25;;
52708;SDS011;38606;52.986;6.980;2023-05-10T08:27:37;0.95;;;0.38;;
52708;SDS011;38606;52.986;6.980;2023-05-10T08:30:03;1.35;;;0.30;;
52708;SDS011;38606;52.986;6.980;2023-05-10T08:32:29;0.30;;;0.30;;
52708;SDS011;38606;52.986;6.980;2023-05-10T08:34:54;0.40;;;0.40;;
52708;SDS011;38606;52.986;6.980;2023-05-10T08:37:21;0.40;;;0.40;;
52708;SDS011;38606;52.986;6.980;2023-05-10T08:39:48;0.70;;;0.70;;
52708;SDS011;38606;52.986;6.980;2023-05-10T08:42:13;1.27;;;0.70;;
52708;SDS011;38606;52.986;6.980;2023-05-10T08:44:44;0.70;;;0.68;;
52708;SDS011;38606;52.986;6.980;2023-05-10T08:47:13;1.08;;;1.00;;
52708;SDS011;38606;52.986;6.980;2023-05-10T08:49:42;1.00;;;1.00;;
52708;SDS011;38606;52.986;6.980;2023-05-10T08:52:11;1.30;;;1.20;;
52708;SDS011;38606;52.986;6.980;2023-05-10T08:54:40;1.90;;;1.60;;
52708;SDS011;38606;52.986;6.980;2023-05-10T08:57:06;2.92;;;1.80;;
52708;SDS011;38606;52.986;6.980;2023-05-10T08:59:32;2.53;;;2.10;;
52708;SDS011;38606;52.986;6.980;2023-05-10T09:01:58;2.28;;;1.90;;
52708;SDS011;38606;52.986;6.980;2023-05-10T09:04:25;2.20;;;2.10;;
52708;SDS011;38606;52.986;6.980;2023-05-10T09:06:51;2.60;;;2.40;;
52708;SDS011;38606;52.986;6.980;2023-05-10T09:09:17;2.70;;;2.50;;
52708;SDS011;38606;52.986;6.980;2023-05-10T09:11:44;4.95;;;3.10;;
52708;SDS011;38606;52.986;6.980;2023-05-10T09:14:10;3.28;;;2.83;;
52708;SDS011;38606;52.986;6.980;2023-05-10T09:16:37;3.30;;;2.70;;
52708;SDS011;38606;52.986;6.980;2023-05-10T09:19:03;3.13;;;2.90;;
52708;SDS011;38606;52.986;6.980;2023-05-10T09:21:29;3.28;;;3.05;;
52708;SDS011;38606;52.986;6.980;2023-05-10T09:23:56;4.03;;;3.33;;
52708;SDS011;38606;52.986;6.980;2023-05-10T09:26:22;3.50;;;3.20;;
52708;SDS011;38606;52.986;6.980;2023-05-10T09:31:18;3.70;;;3.40;;
52708;SDS011;38606;52.986;6.980;2023-05-10T09:33:45;3.50;;;3.20;;
52708;SDS011;38606;52.986;6.980;2023-05-10T09:36:12;5.00;;;4.60;;
52708;SDS011;38606;52.986;6.980;2023-05-10T09:38:48;3.80;;;3.50;;
52708;SDS011;38606;52.986;6.980;2023-05-10T09:41:16;4.38;;;3.50;;
52708;SDS011;38606;52.986;6.980;2023-05-10T09:43:43;4.45;;;3.63;;
52708;SDS011;38606;52.986;6.980;2023-05-10T09:46:09;5.13;;;3.25;;
52708;SDS011;38606;52.986;6.980;2023-05-10T09:48:40;3.40;;;2.90;;
52708;SDS011;38606;52.986;6.980;2023-05-10T09:51:07;3.38;;;2.55;;
52708;SDS011;38606;52.986;6.980;2023-05-10T09:53:33;2.47;;;2.28;;
52708;SDS011;38606;52.986;6.980;2023-05-10T09:55:59;3.28;;;2.55;;
52708;SDS011;38606;52.986;6.980;2023-05-10T09:58:24;3.72;;;3.17;;
52708;SDS011;38606;52.986;6.980;2023-05-10T10:00:50;3.72;;;3.13;;
52708;SDS011;38606;52.986;6.980;2023-05-10T10:03:18;3.38;;;2.92;;
52708;SDS011;38606;52.986;6.980;2023-05-10T10:05:46;3.17;;;2.65;;
52708;SDS011;38606;52.986;6.980;2023-05-10T10:08:13;3.70;;;2.90;;
52708;SDS011;38606;52.986;6.980;2023-05-10T10:10:40;4.85;;;2.70;;
52708;SDS011;38606;52.986;6.980;2023-05-10T10:13:06;3.42;;;2.65;;
52708;SDS011;38606;52.986;6.980;2023-05-10T10:15:36;3.25;;;2.67;;
52708;SDS011;38606;52.986;6.980;2023-05-10T10:18:02;4.75;;;2.50;;
52708;SDS011;38606;52.986;6.980;2023-05-10T10:20:31;2.90;;;2.53;;
52708;SDS011;38606;52.986;6.980;2023-05-10T10:22:57;3.80;;;2.60;;
52708;SDS011;38606;52.986;6.980;2023-05-10T10:25:22;2.58;;;2.30;;
52708;SDS011;38606;52.986;6.980;2023-05-10T10:27:56;4.70;;;2.70;;
52708;SDS011;38606;52.986;6.980;2023-05-10T10:30:42;3.80;;;2.45;;
52708;SDS011;38606;52.986;6.980;2023-05-10T10:35:48;2.70;;;2.17;;
52708;SDS011;38606;52.986;6.980;2023-05-10T10:38:15;2.78;;;2.50;;
52708;SDS011;38606;52.986;6.980;2023-05-10T10:40:42;2.58;;;2.35;;
52708;SDS011;38606;52.986;6.980;2023-05-10T10:43:24;4.63;;;3.13;;
52708;SDS011;38606;52.986;6.980;2023-05-10T10:46:24;3.10;;;2.90;;
52708;SDS011;38606;52.986;6.980;2023-05-10T10:48:50;3.65;;;3.35;;
52708;SDS011;38606;52.986;6.980;2023-05-10T10:51:37;9.27;;;3.25;;
52708;SDS011;38606;52.986;6.980;2023-05-10T10:54:09;4.22;;;2.95;;
52708;SDS011;38606;52.986;6.980;2023-05-10T10:56:36;2.70;;;2.50;;
52708;SDS011;38606;52.986;6.980;2023-05-10T10:59:02;2.42;;;2.20;;
52708;SDS011;38606;52.986;6.980;2023-05-10T11:01:32;3.03;;;2.75;;
52708;SDS011;38606;52.986;6.980;2023-05-10T11:06:28;3.90;;;2.60;;
52708;SDS011;38606;52.986;6.980;2023-05-10T11:08:58;4.25;;;3.38;;
52708;SDS011;38606;52.986;6.980;2023-05-10T11:11:35;3.15;;;2.85;;
52708;SDS011;38606;52.986;6.980;2023-05-10T11:14:13;3.55;;;2.85;;
52708;SDS011;38606;52.986;6.980;2023-05-10T11:16:42;5.88;;;3.72;;
52708;SDS011;38606;52.986;6.980;2023-05-10T11:19:15;4.45;;;3.40;;
52708;SDS011;38606;52.986;6.980;2023-05-10T11:24:15;4.93;;;3.63;;
52708;SDS011;38606;52.986;6.980;2023-05-10T11:26:43;4.35;;;3.60;;
52708;SDS011;38606;52.986;6.980;2023-05-10T11:29:09;4.55;;;4.10;;
52708;SDS011;38606;52.986;6.980;2023-05-10T11:31:35;5.45;;;4.75;;
52708;SDS011;38606;52.986;6.980;2023-05-10T11:34:08;5.25;;;4.57;;
52708;SDS011;38606;52.986;6.980;2023-05-10T11:36:35;6.55;;;4.43;;
52708;SDS011;38606;52.986;6.980;2023-05-10T11:39:02;5.38;;;4.65;;
52708;SDS011;38606;52.986;6.980;2023-05-10T11:41:29;6.85;;;4.50;;
52708;SDS011;38606;52.986;6.980;2023-05-10T11:43:56;5.93;;;5.00;;
52708;SDS011;38606;52.986;6.980;2023-05-10T11:46:23;8.15;;;5.22;;
52708;SDS011;38606;52.986;6.980;2023-05-10T11:48:50;7.60;;;5.57;;
52708;SDS011;38606;52.986;6.980;2023-05-10T11:51:24;5.07;;;4.57;;
52708;SDS011;38606;52.986;6.980;2023-05-10T11:53:54;6.80;;;5.38;;
52708;SDS011;38606;52.986;6.980;2023-05-10T11:56:21;6.82;;;5.43;;
52708;SDS011;38606;52.986;6.980;2023-05-10T11:58:55;7.60;;;4.88;;
52708;SDS011;38606;52.986;6.980;2023-05-10T12:01:23;6.80;;;5.07;;
52708;SDS011;38606;52.986;6.980;2023-05-10T12:03:50;7.30;;;5.15;;
52708;SDS011;38606;52.986;6.980;2023-05-10T12:06:18;6.45;;;5.43;;
52708;SDS011;38606;52.986;6.980;2023-05-10T12:08:45;6.68;;;5.68;;
52708;SDS011;38606;52.986;6.980;2023-05-10T12:11:12;7.15;;;5.82;;
52708;SDS011;38606;52.986;6.980;2023-05-10T12:13:42;7.80;;;5.53;;
52708;SDS011;38606;52.986;6.980;2023-05-10T12:16:19;8.05;;;5.63;;
52708;SDS011;38606;52.986;6.980;2023-05-10T12:18:50;7.93;;;5.93;;
52708;SDS011;38606;52.986;6.980;2023-05-10T12:21:16;6.47;;;5.40;;
52708;SDS011;38606;52.986;6.980;2023-05-10T12:23:45;7.45;;;5.93;;
52708;SDS011;38606;52.986;6.980;2023-05-10T12:26:12;7.93;;;5.43;;
52708;SDS011;38606;52.986;6.980;2023-05-10T12:28:38;6.97;;;4.93;;
52708;SDS011;38606;52.986;6.980;2023-05-10T12:31:06;6.47;;;5.53;;
52708;SDS011;38606;52.986;6.980;2023-05-10T12:33:36;8.35;;;5.18;;
52708;SDS011;38606;52.986;6.980;2023-05-10T12:36:13;6.93;;;5.00;;
52708;SDS011;38606;52.986;6.980;2023-05-10T12:38:43;8.25;;;4.65;;
52708;SDS011;38606;52.986;6.980;2023-05-10T12:41:16;10.68;;;4.50;;
52708;SDS011;38606;52.986;6.980;2023-05-10T12:43:43;8.00;;;5.10;;
52708;SDS011;38606;52.986;6.980;2023-05-10T12:46:11;6.72;;;4.50;;
52708;SDS011;38606;52.986;6.980;2023-05-10T12:48:38;6.30;;;4.97;;
52708;SDS011;38606;52.986;6.980;2023-05-10T12:51:05;7.57;;;5.20;;
52708;SDS011;38606;52.986;6.980;2023-05-10T12:53:34;6.07;;;4.47;;
52708;SDS011;38606;52.986;6.980;2023-05-10T12:56:01;5.80;;;4.72;;
52708;SDS011;38606;52.986;6.980;2023-05-10T12:58:26;6.53;;;5.00;;
52708;SDS011;38606;52.986;6.980;2023-05-10T13:00:52;6.07;;;4.63;;
52708;SDS011;38606;52.986;6.980;2023-05-10T13:03:18;6.03;;;4.63;;
52708;SDS011;38606;52.986;6.980;2023-05-10T13:05:45;7.25;;;4.97;;
52708;SDS011;38606;52.986;6.980;2023-05-10T13:08:10;5.82;;;5.13;;
52708;SDS011;38606;52.986;6.980;2023-05-10T13:10:36;9.27;;;5.70;;
52708;SDS011;38606;52.986;6.980;2023-05-10T13:13:02;9.35;;;5.22;;
52708;SDS011;38606;52.986;6.980;2023-05-10T13:15:27;7.20;;;5.53;;
52708;SDS011;38606;52.986;6.980;2023-05-10T13:17:53;7.80;;;6.28;;
52708;SDS011;38606;52.986;6.980;2023-05-10T13:20:19;10.10;;;5.78;;
52708;SDS011;38606;52.986;6.980;2023-05-10T13:22:45;8.85;;;5.63;;
52708;SDS011;38606;52.986;6.980;2023-05-10T13:25:11;7.30;;;5.75;;
52708;SDS011;38606;52.986;6.980;2023-05-10T13:27:38;8.40;;;5.22;;
52708;SDS011;38606;52.986;6.980;2023-05-10T13:30:08;9.93;;;5.82;;
52708;SDS011;38606;52.986;6.980;2023-05-10T13:32:34;11.13;;;5.70;;
52708;SDS011;38606;52.986;6.980;2023-05-10T13:35:00;7.53;;;5.82;;
52708;SDS011;38606;52.986;6.980;2023-05-10T13:37:28;7.05;;;4.88;;
52708;SDS011;38606;52.986;6.980;2023-05-10T13:39:54;8.82;;;4.68;;
52708;SDS011;38606;52.986;6.980;2023-05-10T13:42:21;6.65;;;4.43;;
52708;SDS011;38606;52.986;6.980;2023-05-10T13:44:48;5.93;;;4.72;;
52708;SDS011;38606;52.986;6.980;2023-05-10T13:47:14;5.90;;;4.80;;
52708;SDS011;38606;52.986;6.980;2023-05-10T13:49:40;6.80;;;4.97;;
52708;SDS011;38606;52.986;6.980;2023-05-10T13:52:06;8.57;;;5.15;;
52708;SDS011;38606;52.986;6.980;2023-05-10T13:54:33;7.00;;;4.57;;
52708;SDS011;38606;52.986;6.980;2023-05-10T13:56:59;5.88;;;4.53;;
52708;SDS011;38606;52.986;6.980;2023-05-10T13:59:25;7.93;;;4.93;;
52708;SDS011;38606;52.986;6.980;2023-05-10T14:01:51;8.27;;;5.40;;
52708;SDS011;38606;52.986;6.980;2023-05-10T14:04:17;9.23;;;5.00;;
52708;SDS011;38606;52.986;6.980;2023-05-10T14:06:43;11.05;;;5.85;;
52708;SDS011;38606;52.986;6.980;2023-05-10T14:09:08;11.23;;;6.35;;
52708;SDS011;38606;52.986;6.980;2023-05-10T14:11:34;9.13;;;6.03;;
52708;SDS011;38606;52.986;6.980;2023-05-10T14:14:00;8.57;;;6.45;;
52708;SDS011;38606;52.986;6.980;2023-05-10T14:16:26;7.53;;;6.00;;
52708;SDS011;38606;52.986;6.980;2023-05-10T14:18:52;8.02;;;5.95;;
52708;SDS011;38606;52.986;6.980;2023-05-10T14:21:18;9.80;;;6.18;;
52708;SDS011;38606;52.986;6.980;2023-05-10T14:23:43;8.30;;;5.82;;
52708;SDS011;38606;52.986;6.980;2023-05-10T14:26:09;7.88;;;6.25;;
52708;SDS011;38606;52.986;6.980;2023-05-10T14:28:35;10.05;;;6.05;;
52708;SDS011;38606;52.986;6.980;2023-05-10T14:31:01;8.07;;;6.07;;
52708;SDS011;38606;52.986;6.980;2023-05-10T14:33:27;8.18;;;6.43;;
52708;SDS011;38606;52.986;6.980;2023-05-10T14:35:53;11.38;;;6.53;;
52708;SDS011;38606;52.986;6.980;2023-05-10T14:38:21;9.27;;;6.40;;
52708;SDS011;38606;52.986;6.980;2023-05-10T14:40:48;8.70;;;6.47;;
52708;SDS011;38606;52.986;6.980;2023-05-10T14:43:14;8.25;;;5.93;;
52708;SDS011;38606;52.986;6.980;2023-05-10T14:45:40;9.52;;;6.57;;
52708;SDS011;38606;52.986;6.980;2023-05-10T14:48:06;11.20;;;6.20;;
52708;SDS011;38606;52.986;6.980;2023-05-10T14:50:36;12.50;;;6.32;;
52708;SDS011;38606;52.986;6.980;2023-05-10T14:53:01;7.97;;;5.60;;
52708;SDS011;38606;52.986;6.980;2023-05-10T14:55:27;9.80;;;6.20;;
52708;SDS011;38606;52.986;6.980;2023-05-10T14:57:53;8.93;;;5.78;;
52708;SDS011;38606;52.986;6.980;2023-05-10T15:00:19;7.80;;;6.32;;
52708;SDS011;38606;52.986;6.980;2023-05-10T15:02:45;8.32;;;6.03;;
52708;SDS011;38606;52.986;6.980;2023-05-10T15:05:12;8.30;;;5.53;;
52708;SDS011;38606;52.986;6.980;2023-05-10T15:07:38;11.15;;;6.20;;
52708;SDS011;38606;52.986;6.980;2023-05-10T15:10:04;11.52;;;6.65;;
52708;SDS011;38606;52.986;6.980;2023-05-10T15:12:30;9.15;;;6.40;;
52708;SDS011;38606;52.986;6.980;2023-05-10T15:14:56;11.20;;;7.03;;
52708;SDS011;38606;52.986;6.980;2023-05-10T15:17:22;11.88;;;7.20;;